• Join FlightAware (Why Join?)
  • Login
  • US Flag 
10:54PM EST


 

Airport Tracker/Info


-or-


 

Live Flight TrackerFlight Track Log ✈ CPT7773 ✈ 06-May-2013 ✈ KCOD - KCPR

Flight Track Log - Related Links

Times and Time Zones

All times are in EDT time to prevent confusion due to time zone crossing. See the CPT7773 flight status page for this flight to view local times or setup timezone preferences in your user account.

Time Position Orientation Groundspeed Altitude Reporting Facility
EDT Latitude Longitude Course Direction KTS MPH feet Rate Location/Type
07:46PM 44.5231 -108.9633 106° East 125 144 6,600  Level Salt Lake Center
07:48PM 44.4800 -108.9260 148° Southeast  Level FlightAware Approximate
07:48PM 44.5036 -108.8661 148° Southeast 125 144 8,800  Level Salt Lake Center
07:50PM 44.4714 -108.8155 115° Southeast  Level Estimated
07:50PM 44.4861 -108.7750 115° Southeast 127 146 10,400  Level Salt Lake Center
07:51PM 44.4678 -108.7222 116° Southeast 131 151 11,100 180 Climbing Salt Lake Center
07:53PM 44.4366 -108.6758 133° Southeast  Level FlightAware Approximate
07:54PM 44.4033 -108.6267 133° Southeast 159 183 11,000  Level Salt Lake Center
07:55PM 44.3736 -108.5819 133° Southeast 162 186 11,000  Level Salt Lake Center
07:56PM 44.3456 -108.5369 131° Southeast 162 186 11,000  Level Salt Lake Center
07:58PM 44.2870 -108.4530 134° Southeast  Level FlightAware Approximate
07:58PM 44.2611 -108.4039 134° Southeast 159 183 11,000  Level Denver Center
07:59PM 44.2514 -108.3911 137° Southeast 159 183 11,100  Climbing Salt Lake Center
08:00PM 44.2047 -108.3150 131° Southeast 160 184 11,000 -60 Descending Denver Center
08:01PM 44.1900 -108.2953 136° Southeast 160 184 11,000 60 Level Salt Lake Center
08:02PM 44.1611 -108.2533 134° Southeast 158 182 11,100  Climbing Salt Lake Center
08:03PM 44.1328 -108.2097 132° Southeast 158 182 11,000 -60 Descending Salt Lake Center
08:04PM 44.0992 -108.1586 132° Southeast 159 183 11,000  Level Salt Lake Center
08:06PM 44.0422 -108.0689 131° Southeast 161 185 11,000  Level Denver Center
08:07PM 44.0103 -108.0181 131° Southeast 158 182 11,100  Climbing Denver Center
08:08PM 43.9814 -107.9750 133° Southeast 159 183 11,100  Level Denver Center
08:09PM 43.9481 -107.9261 133° Southeast 158 182 11,100 -60 Level Salt Lake Center
08:10PM 43.9256 -107.8772 123° Southeast 156 180 11,000  Descending Salt Lake Center
08:13PM 43.8877 -107.7953 123° Southeast  Level FlightAware Approximate
08:13PM 43.8450 -107.7178 123° Southeast 157 181 11,100  Level Salt Lake Center
08:14PM 43.8208 -107.6725 126° Southeast 155 178 11,100  Level Salt Lake Center
08:15PM 43.7981 -107.6281 125° Southeast 152 175 11,100  Level Salt Lake Center
08:16PM 43.7703 -107.5742 126° Southeast 152 175 11,100  Level Salt Lake Center
08:17PM 43.7461 -107.5267 125° Southeast 154 177 11,100  Level Salt Lake Center
08:18PM 43.7189 -107.4742 126° Southeast 153 176 11,100  Level Salt Lake Center
08:20PM 43.6681 -107.3717 124° Southeast 155 178 11,100  Level Denver Center
08:21PM 43.6444 -107.3247 125° Southeast 156 180 11,100  Level Denver Center
08:22PM 43.6178 -107.2783 128° Southeast 158 182 11,100  Level Salt Lake Center
08:23PM 43.5894 -107.2244 126° Southeast 157 181 11,100  Level Salt Lake Center
08:24PM 43.5672 -107.1792 124° Southeast 154 177 11,100  Level Salt Lake Center
08:25PM 43.5386 -107.1269 127° Southeast 152 175 11,100 -60 Level Salt Lake Center
08:26PM 43.5144 -107.0814 126° Southeast 153 176 11,000  Descending Salt Lake Center
08:27PM 43.4883 -107.0278 124° Southeast 152 175 11,100  Climbing Denver Center
08:28PM 43.4639 -106.9825 127° Southeast 153 176 11,100 -60 Level Denver Center
08:29PM 43.4364 -106.9292 125° Southeast 154 177 11,000  Descending Denver Center
08:30PM 43.4133 -106.8844 125° Southeast 152 175 11,100  Climbing Denver Center
08:31PM 43.3758 -106.8508 147° Southeast 157 181 11,000 -300 Descending Denver Center
08:33PM 43.3389 -106.8228 151° Southeast 158 182 10,500 -600 Descending Denver Center
08:34PM 43.2978 -106.7883 149° Southeast 156 180 9,800 -480 Descending Denver Center
08:35PM 43.2628 -106.7586 148° Southeast 155 178 9,600 -240 Descending Denver Center
08:36PM 43.2267 -106.7244 145° Southeast 147 169 9,400 -360 Descending Denver Center
08:37PM 43.1917 -106.6958 149° Southeast 148 170 8,900 -600 Descending Denver Center
08:38PM 43.1500 -106.6628 150° Southeast 151 174 8,200 -420 Descending Denver Center
08:40PM 43.0811 -106.6061 127° Southeast  Level Estimated
08:41PM 43.0297 -106.5925 127° Southeast 107 123 7,400  Level Denver Center
08:42PM 42.9956 -106.5714 156° South 142 163 7,300 -120 Descending Denver Center
08:44PM 42.9394 -106.4999 137° Southeast  Level FlightAware Approximate
08:51PM 42.9080 -106.4644 140° Southeast  Level Estimated
08:52PM 42.9080 -106.4644 140° Southeast  Level Estimated
08:53PM 42.9080 -106.4644 140° Southeast  Level Estimated
08:54PM 42.9080 -106.4644 140° Southeast  Level Estimated